sensor_id;sensor_type;location;lat;lon;timestamp;P1;durP1;ratioP1;P2;durP2;ratioP2
77573;SDS011;66710;48.868;9.080;2023-08-20T00:01:15;13.93;;;10.88;;
77573;SDS011;66710;48.868;9.080;2023-08-20T00:03:46;13.57;;;10.70;;
77573;SDS011;66710;48.868;9.080;2023-08-20T00:06:13;13.15;;;10.85;;
77573;SDS011;66710;48.868;9.080;2023-08-20T00:08:39;13.43;;;10.65;;
77573;SDS011;66710;48.868;9.080;2023-08-20T00:11:04;13.30;;;11.18;;
77573;SDS011;66710;48.868;9.080;2023-08-20T00:13:30;12.65;;;10.65;;
77573;SDS011;66710;48.868;9.080;2023-08-20T00:15:55;13.38;;;10.60;;
77573;SDS011;66710;48.868;9.080;2023-08-20T00:18:21;13.73;;;10.82;;
77573;SDS011;66710;48.868;9.080;2023-08-20T00:20:46;13.35;;;10.70;;
77573;SDS011;66710;48.868;9.080;2023-08-20T00:23:12;13.98;;;10.98;;
77573;SDS011;66710;48.868;9.080;2023-08-20T00:25:38;15.07;;;11.07;;
77573;SDS011;66710;48.868;9.080;2023-08-20T00:28:03;14.20;;;11.18;;
77573;SDS011;66710;48.868;9.080;2023-08-20T00:30:29;12.98;;;11.40;;
77573;SDS011;66710;48.868;9.080;2023-08-20T00:32:54;12.57;;;11.10;;
77573;SDS011;66710;48.868;9.080;2023-08-20T00:35:20;14.10;;;11.30;;
77573;SDS011;66710;48.868;9.080;2023-08-20T00:37:46;13.95;;;11.68;;
77573;SDS011;66710;48.868;9.080;2023-08-20T00:40:11;13.80;;;11.77;;
77573;SDS011;66710;48.868;9.080;2023-08-20T00:42:37;14.90;;;10.98;;
77573;SDS011;66710;48.868;9.080;2023-08-20T00:45:03;15.27;;;11.38;;
77573;SDS011;66710;48.868;9.080;2023-08-20T00:47:29;13.02;;;10.70;;
77573;SDS011;66710;48.868;9.080;2023-08-20T00:49:54;14.43;;;11.80;;
77573;SDS011;66710;48.868;9.080;2023-08-20T00:52:19;13.95;;;11.60;;
77573;SDS011;66710;48.868;9.080;2023-08-20T00:54:45;16.23;;;11.48;;
77573;SDS011;66710;48.868;9.080;2023-08-20T00:57:17;15.07;;;11.32;;
77573;SDS011;66710;48.868;9.080;2023-08-20T00:59:44;14.45;;;11.23;;
77573;SDS011;66710;48.868;9.080;2023-08-20T01:02:15;17.20;;;11.57;;
77573;SDS011;66710;48.868;9.080;2023-08-20T01:04:42;16.17;;;11.30;;
77573;SDS011;66710;48.868;9.080;2023-08-20T01:07:12;14.80;;;11.60;;
77573;SDS011;66710;48.868;9.080;2023-08-20T01:10:13;15.27;;;11.48;;
77573;SDS011;66710;48.868;9.080;2023-08-20T01:12:44;14.45;;;11.30;;
77573;SDS011;66710;48.868;9.080;2023-08-20T01:15:11;15.07;;;11.18;;
77573;SDS011;66710;48.868;9.080;2023-08-20T01:17:39;17.30;;;11.90;;
77573;SDS011;66710;48.868;9.080;2023-08-20T01:20:05;14.95;;;11.23;;
77573;SDS011;66710;48.868;9.080;2023-08-20T01:28:26;14.68;;;11.50;;
77573;SDS011;66710;48.868;9.080;2023-08-20T01:30:54;14.75;;;12.10;;
77573;SDS011;66710;48.868;9.080;2023-08-20T01:33:22;15.88;;;12.10;;
77573;SDS011;66710;48.868;9.080;2023-08-20T01:35:49;16.88;;;11.77;;
77573;SDS011;66710;48.868;9.080;2023-08-20T01:38:15;14.35;;;11.27;;
77573;SDS011;66710;48.868;9.080;2023-08-20T01:40:40;15.38;;;11.75;;
77573;SDS011;66710;48.868;9.080;2023-08-20T01:43:05;13.75;;;11.32;;
77573;SDS011;66710;48.868;9.080;2023-08-20T01:45:32;15.65;;;11.10;;
77573;SDS011;66710;48.868;9.080;2023-08-20T01:47:57;15.40;;;11.18;;
77573;SDS011;66710;48.868;9.080;2023-08-20T01:50:22;13.13;;;11.23;;
77573;SDS011;66710;48.868;9.080;2023-08-20T01:52:47;13.90;;;11.32;;
77573;SDS011;66710;48.868;9.080;2023-08-20T01:55:13;15.35;;;11.93;;
77573;SDS011;66710;48.868;9.080;2023-08-20T01:57:39;16.23;;;12.00;;
77573;SDS011;66710;48.868;9.080;2023-08-20T02:00:04;15.65;;;11.57;;
77573;SDS011;66710;48.868;9.080;2023-08-20T02:02:30;14.75;;;12.23;;
77573;SDS011;66710;48.868;9.080;2023-08-20T02:04:56;13.00;;;11.60;;
77573;SDS011;66710;48.868;9.080;2023-08-20T02:07:21;14.80;;;11.50;;
77573;SDS011;66710;48.868;9.080;2023-08-20T02:09:46;17.10;;;12.25;;
77573;SDS011;66710;48.868;9.080;2023-08-20T02:12:12;13.43;;;12.02;;
77573;SDS011;66710;48.868;9.080;2023-08-20T02:14:37;15.00;;;12.50;;
77573;SDS011;66710;48.868;9.080;2023-08-20T02:17:02;15.43;;;12.35;;
77573;SDS011;66710;48.868;9.080;2023-08-20T02:19:28;14.48;;;11.38;;
77573;SDS011;66710;48.868;9.080;2023-08-20T02:21:53;16.10;;;12.30;;
77573;SDS011;66710;48.868;9.080;2023-08-20T02:24:19;14.80;;;11.90;;
77573;SDS011;66710;48.868;9.080;2023-08-20T02:26:44;14.52;;;12.07;;
77573;SDS011;66710;48.868;9.080;2023-08-20T02:29:09;15.45;;;12.40;;
77573;SDS011;66710;48.868;9.080;2023-08-20T02:31:35;14.90;;;12.65;;
77573;SDS011;66710;48.868;9.080;2023-08-20T02:34:00;16.75;;;12.30;;
77573;SDS011;66710;48.868;9.080;2023-08-20T02:36:26;14.82;;;11.85;;
77573;SDS011;66710;48.868;9.080;2023-08-20T02:38:51;15.43;;;12.02;;
77573;SDS011;66710;48.868;9.080;2023-08-20T02:41:16;16.42;;;12.00;;
77573;SDS011;66710;48.868;9.080;2023-08-20T02:43:42;17.27;;;12.10;;
77573;SDS011;66710;48.868;9.080;2023-08-20T02:46:07;16.15;;;12.05;;
77573;SDS011;66710;48.868;9.080;2023-08-20T02:48:32;14.25;;;12.30;;
77573;SDS011;66710;48.868;9.080;2023-08-20T02:50:58;16.85;;;12.95;;
77573;SDS011;66710;48.868;9.080;2023-08-20T02:53:23;15.43;;;12.90;;
77573;SDS011;66710;48.868;9.080;2023-08-20T02:55:48;17.02;;;12.52;;
77573;SDS011;66710;48.868;9.080;2023-08-20T02:58:14;16.02;;;12.77;;
77573;SDS011;66710;48.868;9.080;2023-08-20T03:00:39;15.82;;;13.07;;
77573;SDS011;66710;48.868;9.080;2023-08-20T03:03:05;17.10;;;12.23;;
77573;SDS011;66710;48.868;9.080;2023-08-20T03:05:33;15.43;;;12.85;;
77573;SDS011;66710;48.868;9.080;2023-08-20T03:07:58;15.35;;;12.15;;
77573;SDS011;66710;48.868;9.080;2023-08-20T03:10:24;15.02;;;12.43;;
77573;SDS011;66710;48.868;9.080;2023-08-20T03:12:49;15.68;;;12.52;;
77573;SDS011;66710;48.868;9.080;2023-08-20T03:15:14;16.05;;;12.38;;
77573;SDS011;66710;48.868;9.080;2023-08-20T03:17:40;18.17;;;12.57;;
77573;SDS011;66710;48.868;9.080;2023-08-20T03:20:05;16.33;;;12.90;;
77573;SDS011;66710;48.868;9.080;2023-08-20T03:22:31;16.92;;;13.00;;
77573;SDS011;66710;48.868;9.080;2023-08-20T03:24:57;16.13;;;13.18;;
77573;SDS011;66710;48.868;9.080;2023-08-20T03:27:22;16.05;;;13.25;;
77573;SDS011;66710;48.868;9.080;2023-08-20T03:29:47;17.50;;;13.23;;
77573;SDS011;66710;48.868;9.080;2023-08-20T03:32:13;15.65;;;12.93;;
77573;SDS011;66710;48.868;9.080;2023-08-20T03:34:38;16.08;;;13.00;;
77573;SDS011;66710;48.868;9.080;2023-08-20T03:37:03;16.90;;;13.45;;
77573;SDS011;66710;48.868;9.080;2023-08-20T03:39:30;16.30;;;12.85;;
77573;SDS011;66710;48.868;9.080;2023-08-20T03:41:56;16.27;;;12.50;;
77573;SDS011;66710;48.868;9.080;2023-08-20T03:44:22;16.63;;;12.38;;
77573;SDS011;66710;48.868;9.080;2023-08-20T03:46:47;16.02;;;12.90;;
77573;SDS011;66710;48.868;9.080;2023-08-20T03:49:12;17.17;;;12.38;;
77573;SDS011;66710;48.868;9.080;2023-08-20T03:51:37;16.17;;;12.38;;
77573;SDS011;66710;48.868;9.080;2023-08-20T03:54:03;19.33;;;12.82;;
77573;SDS011;66710;48.868;9.080;2023-08-20T03:56:28;18.30;;;12.85;;
77573;SDS011;66710;48.868;9.080;2023-08-20T03:58:54;17.10;;;13.95;;
77573;SDS011;66710;48.868;9.080;2023-08-20T04:01:19;14.93;;;13.25;;
77573;SDS011;66710;48.868;9.080;2023-08-20T04:03:47;18.50;;;13.73;;
77573;SDS011;66710;48.868;9.080;2023-08-20T04:06:13;16.77;;;13.50;;
77573;SDS011;66710;48.868;9.080;2023-08-20T04:08:39;17.30;;;13.18;;
77573;SDS011;66710;48.868;9.080;2023-08-20T04:11:04;16.65;;;13.20;;
77573;SDS011;66710;48.868;9.080;2023-08-20T04:13:30;16.92;;;13.07;;
77573;SDS011;66710;48.868;9.080;2023-08-20T04:15:55;15.75;;;12.95;;
77573;SDS011;66710;48.868;9.080;2023-08-20T04:18:20;16.50;;;12.55;;
77573;SDS011;66710;48.868;9.080;2023-08-20T04:20:47;16.60;;;12.93;;
77573;SDS011;66710;48.868;9.080;2023-08-20T04:23:12;15.35;;;13.15;;
77573;SDS011;66710;48.868;9.080;2023-08-20T04:25:37;17.92;;;13.35;;
77573;SDS011;66710;48.868;9.080;2023-08-20T04:28:02;17.00;;;12.98;;
77573;SDS011;66710;48.868;9.080;2023-08-20T04:30:28;15.73;;;12.63;;
77573;SDS011;66710;48.868;9.080;2023-08-20T04:32:53;17.40;;;13.15;;
77573;SDS011;66710;48.868;9.080;2023-08-20T04:35:18;16.85;;;12.82;;
77573;SDS011;66710;48.868;9.080;2023-08-20T04:37:44;18.23;;;12.68;;
77573;SDS011;66710;48.868;9.080;2023-08-20T04:40:09;15.65;;;12.40;;
77573;SDS011;66710;48.868;9.080;2023-08-20T04:42:35;15.52;;;12.63;;
77573;SDS011;66710;48.868;9.080;2023-08-20T04:45:01;15.07;;;12.38;;
77573;SDS011;66710;48.868;9.080;2023-08-20T04:47:26;17.02;;;13.13;;
77573;SDS011;66710;48.868;9.080;2023-08-20T04:49:52;17.40;;;13.35;;
77573;SDS011;66710;48.868;9.080;2023-08-20T04:52:17;16.00;;;13.75;;
77573;SDS011;66710;48.868;9.080;2023-08-20T04:54:42;18.27;;;13.98;;
77573;SDS011;66710;48.868;9.080;2023-08-20T04:57:07;19.00;;;14.40;;
77573;SDS011;66710;48.868;9.080;2023-08-20T04:59:33;18.67;;;14.35;;
77573;SDS011;66710;48.868;9.080;2023-08-20T05:01:58;17.45;;;14.02;;
77573;SDS011;66710;48.868;9.080;2023-08-20T05:04:23;19.13;;;14.30;;
77573;SDS011;66710;48.868;9.080;2023-08-20T05:06:49;16.33;;;12.57;;
77573;SDS011;66710;48.868;9.080;2023-08-20T05:09:14;17.92;;;13.73;;
77573;SDS011;66710;48.868;9.080;2023-08-20T05:11:40;15.82;;;12.80;;
77573;SDS011;66710;48.868;9.080;2023-08-20T05:14:06;15.10;;;12.50;;
77573;SDS011;66710;48.868;9.080;2023-08-20T05:16:31;15.50;;;12.57;;
77573;SDS011;66710;48.868;9.080;2023-08-20T05:18:56;17.23;;;14.10;;
77573;SDS011;66710;48.868;9.080;2023-08-20T05:21:21;16.60;;;13.43;;
77573;SDS011;66710;48.868;9.080;2023-08-20T05:23:47;21.10;;;14.57;;
77573;SDS011;66710;48.868;9.080;2023-08-20T05:26:12;16.33;;;13.75;;
77573;SDS011;66710;48.868;9.080;2023-08-20T05:28:37;17.58;;;13.30;;
77573;SDS011;66710;48.868;9.080;2023-08-20T05:31:02;17.80;;;13.20;;
77573;SDS011;66710;48.868;9.080;2023-08-20T05:33:28;16.55;;;12.65;;
77573;SDS011;66710;48.868;9.080;2023-08-20T05:35:53;16.23;;;13.30;;
77573;SDS011;66710;48.868;9.080;2023-08-20T05:38:18;17.95;;;14.00;;
77573;SDS011;66710;48.868;9.080;2023-08-20T05:40:44;15.48;;;13.10;;
77573;SDS011;66710;48.868;9.080;2023-08-20T05:43:09;22.98;;;15.07;;
77573;SDS011;66710;48.868;9.080;2023-08-20T05:45:34;16.63;;;13.48;;
77573;SDS011;66710;48.868;9.080;2023-08-20T05:48:00;15.57;;;13.75;;
77573;SDS011;66710;48.868;9.080;2023-08-20T05:50:25;19.00;;;13.18;;
77573;SDS011;66710;48.868;9.080;2023-08-20T05:52:51;17.02;;;13.63;;
77573;SDS011;66710;48.868;9.080;2023-08-20T05:55:17;17.90;;;13.73;;
77573;SDS011;66710;48.868;9.080;2023-08-20T05:57:42;19.67;;;14.20;;
77573;SDS011;66710;48.868;9.080;2023-08-20T06:00:08;16.85;;;14.30;;
77573;SDS011;66710;48.868;9.080;2023-08-20T06:02:34;17.67;;;14.23;;
77573;SDS011;66710;48.868;9.080;2023-08-20T06:04:59;16.45;;;13.88;;
77573;SDS011;66710;48.868;9.080;2023-08-20T06:07:25;17.80;;;14.18;;
77573;SDS011;66710;48.868;9.080;2023-08-20T06:09:50;15.55;;;13.45;;
77573;SDS011;66710;48.868;9.080;2023-08-20T06:12:18;16.00;;;13.80;;
77573;SDS011;66710;48.868;9.080;2023-08-20T06:14:43;18.55;;;14.10;;
77573;SDS011;66710;48.868;9.080;2023-08-20T06:17:09;16.27;;;13.73;;
77573;SDS011;66710;48.868;9.080;2023-08-20T06:19:34;17.17;;;13.02;;
77573;SDS011;66710;48.868;9.080;2023-08-20T06:21:59;18.27;;;13.68;;
77573;SDS011;66710;48.868;9.080;2023-08-20T06:24:25;17.27;;;13.95;;
77573;SDS011;66710;48.868;9.080;2023-08-20T06:26:51;16.92;;;14.00;;
77573;SDS011;66710;48.868;9.080;2023-08-20T06:29:17;17.20;;;13.80;;
77573;SDS011;66710;48.868;9.080;2023-08-20T06:31:42;17.92;;;14.02;;
77573;SDS011;66710;48.868;9.080;2023-08-20T06:34:08;15.02;;;13.43;;
77573;SDS011;66710;48.868;9.080;2023-08-20T06:36:33;17.77;;;13.55;;
77573;SDS011;66710;48.868;9.080;2023-08-20T06:38:58;17.50;;;14.30;;
77573;SDS011;66710;48.868;9.080;2023-08-20T06:41:24;15.70;;;13.27;;
77573;SDS011;66710;48.868;9.080;2023-08-20T06:43:49;14.23;;;12.02;;
77573;SDS011;66710;48.868;9.080;2023-08-20T06:46:14;13.85;;;12.35;;
77573;SDS011;66710;48.868;9.080;2023-08-20T06:48:39;14.65;;;12.23;;
77573;SDS011;66710;48.868;9.080;2023-08-20T06:51:11;15.32;;;12.52;;
77573;SDS011;66710;48.868;9.080;2023-08-20T06:53:37;15.38;;;12.55;;
77573;SDS011;66710;48.868;9.080;2023-08-20T06:56:02;14.05;;;11.80;;
77573;SDS011;66710;48.868;9.080;2023-08-20T06:58:28;14.52;;;12.70;;
77573;SDS011;66710;48.868;9.080;2023-08-20T07:00:53;14.85;;;11.85;;
77573;SDS011;66710;48.868;9.080;2023-08-20T07:03:18;15.07;;;11.95;;
77573;SDS011;66710;48.868;9.080;2023-08-20T07:05:44;15.65;;;12.93;;
77573;SDS011;66710;48.868;9.080;2023-08-20T07:08:09;14.57;;;12.40;;
77573;SDS011;66710;48.868;9.080;2023-08-20T07:10:34;13.70;;;12.10;;
77573;SDS011;66710;48.868;9.080;2023-08-20T07:13:00;16.70;;;12.32;;
77573;SDS011;66710;48.868;9.080;2023-08-20T07:15:25;13.80;;;12.23;;
77573;SDS011;66710;48.868;9.080;2023-08-20T07:17:50;18.23;;;12.15;;
77573;SDS011;66710;48.868;9.080;2023-08-20T07:20:15;13.98;;;11.65;;
77573;SDS011;66710;48.868;9.080;2023-08-20T07:22:41;14.80;;;11.98;;
77573;SDS011;66710;48.868;9.080;2023-08-20T07:25:07;16.67;;;11.82;;
77573;SDS011;66710;48.868;9.080;2023-08-20T07:27:33;16.67;;;11.88;;
77573;SDS011;66710;48.868;9.080;2023-08-20T07:29:58;14.27;;;11.27;;
77573;SDS011;66710;48.868;9.080;2023-08-20T07:32:23;16.17;;;11.20;;
77573;SDS011;66710;48.868;9.080;2023-08-20T07:34:48;14.52;;;11.60;;
77573;SDS011;66710;48.868;9.080;2023-08-20T07:37:14;17.10;;;10.57;;
77573;SDS011;66710;48.868;9.080;2023-08-20T07:39:39;14.18;;;11.65;;
77573;SDS011;66710;48.868;9.080;2023-08-20T07:42:05;13.68;;;11.07;;
77573;SDS011;66710;48.868;9.080;2023-08-20T07:44:31;15.23;;;12.68;;
77573;SDS011;66710;48.868;9.080;2023-08-20T07:46:56;14.18;;;12.25;;
77573;SDS011;66710;48.868;9.080;2023-08-20T07:49:22;15.45;;;11.60;;
77573;SDS011;66710;48.868;9.080;2023-08-20T07:51:47;12.85;;;11.55;;
77573;SDS011;66710;48.868;9.080;2023-08-20T07:54:13;12.60;;;11.27;;
77573;SDS011;66710;48.868;9.080;2023-08-20T07:56:39;14.85;;;11.80;;
77573;SDS011;66710;48.868;9.080;2023-08-20T07:59:04;14.10;;;10.85;;
77573;SDS011;66710;48.868;9.080;2023-08-20T08:01:29;12.85;;;10.98;;
77573;SDS011;66710;48.868;9.080;2023-08-20T08:03:54;11.60;;;10.30;;
77573;SDS011;66710;48.868;9.080;2023-08-20T08:06:20;10.52;;;9.30;;
77573;SDS011;66710;48.868;9.080;2023-08-20T08:08:48;11.13;;;9.85;;
77573;SDS011;66710;48.868;9.080;2023-08-20T08:11:13;10.57;;;9.27;;
77573;SDS011;66710;48.868;9.080;2023-08-20T08:13:41;11.80;;;9.95;;
77573;SDS011;66710;48.868;9.080;2023-08-20T08:16:07;12.27;;;9.57;;
77573;SDS011;66710;48.868;9.080;2023-08-20T08:18:32;11.32;;;9.98;;
77573;SDS011;66710;48.868;9.080;2023-08-20T08:20:57;16.38;;;9.73;;
77573;SDS011;66710;48.868;9.080;2023-08-20T08:23:23;13.10;;;10.00;;
77573;SDS011;66710;48.868;9.080;2023-08-20T08:25:48;13.00;;;9.80;;
77573;SDS011;66710;48.868;9.080;2023-08-20T08:28:13;13.07;;;10.20;;
77573;SDS011;66710;48.868;9.080;2023-08-20T08:30:38;14.23;;;10.02;;
77573;SDS011;66710;48.868;9.080;2023-08-20T08:33:05;12.07;;;10.57;;
77573;SDS011;66710;48.868;9.080;2023-08-20T08:35:30;11.45;;;10.25;;
77573;SDS011;66710;48.868;9.080;2023-08-20T08:37:55;13.15;;;10.30;;
77573;SDS011;66710;48.868;9.080;2023-08-20T08:40:22;14.18;;;11.20;;
77573;SDS011;66710;48.868;9.080;2023-08-20T08:42:49;11.82;;;10.63;;
77573;SDS011;66710;48.868;9.080;2023-08-20T08:45:20;13.65;;;12.25;;
77573;SDS011;66710;48.868;9.080;2023-08-20T08:47:46;12.60;;;11.40;;
77573;SDS011;66710;48.868;9.080;2023-08-20T08:50:12;15.32;;;11.30;;
77573;SDS011;66710;48.868;9.080;2023-08-20T08:52:39;11.93;;;10.63;;
77573;SDS011;66710;48.868;9.080;2023-08-20T08:55:05;14.35;;;11.45;;
77573;SDS011;66710;48.868;9.080;2023-08-20T08:57:33;13.38;;;11.18;;
77573;SDS011;66710;48.868;9.080;2023-08-20T08:59:59;12.15;;;10.88;;
77573;SDS011;66710;48.868;9.080;2023-08-20T09:02:25;13.65;;;11.13;;
77573;SDS011;66710;48.868;9.080;2023-08-20T09:04:50;12.45;;;11.07;;
77573;SDS011;66710;48.868;9.080;2023-08-20T09:07:17;16.65;;;10.90;;
77573;SDS011;66710;48.868;9.080;2023-08-20T09:09:45;14.43;;;11.43;;
77573;SDS011;66710;48.868;9.080;2023-08-20T09:12:17;14.18;;;10.77;;
77573;SDS011;66710;48.868;9.080;2023-08-20T09:14:50;11.48;;;10.23;;
77573;SDS011;66710;48.868;9.080;2023-08-20T09:17:17;11.82;;;10.00;;
77573;SDS011;66710;48.868;9.080;2023-08-20T09:19:43;13.05;;;10.38;;
77573;SDS011;66710;48.868;9.080;2023-08-20T09:22:13;10.98;;;9.80;;
77573;SDS011;66710;48.868;9.080;2023-08-20T09:24:40;13.57;;;10.20;;
77573;SDS011;66710;48.868;9.080;2023-08-20T09:27:07;15.35;;;9.48;;
77573;SDS011;66710;48.868;9.080;2023-08-20T09:29:33;12.00;;;9.93;;
77573;SDS011;66710;48.868;9.080;2023-08-20T09:32:02;11.05;;;9.95;;
77573;SDS011;66710;48.868;9.080;2023-08-20T09:34:37;11.65;;;9.90;;
77573;SDS011;66710;48.868;9.080;2023-08-20T09:37:07;11.20;;;9.40;;
77573;SDS011;66710;48.868;9.080;2023-08-20T09:39:33;10.98;;;9.38;;
77573;SDS011;66710;48.868;9.080;2023-08-20T09:41:58;10.57;;;9.45;;
77573;SDS011;66710;48.868;9.080;2023-08-20T09:44:24;11.20;;;8.60;;
77573;SDS011;66710;48.868;9.080;2023-08-20T09:46:56;12.60;;;8.77;;
77573;SDS011;66710;48.868;9.080;2023-08-20T09:49:22;12.02;;;9.30;;
77573;SDS011;66710;48.868;9.080;2023-08-20T09:51:53;12.23;;;9.02;;
77573;SDS011;66710;48.868;9.080;2023-08-20T09:54:23;9.55;;;8.55;;
77573;SDS011;66710;48.868;9.080;2023-08-20T09:57:13;10.65;;;8.95;;
77573;SDS011;66710;48.868;9.080;2023-08-20T09:59:47;9.60;;;8.45;;
77573;SDS011;66710;48.868;9.080;2023-08-20T10:02:13;10.27;;;8.57;;
77573;SDS011;66710;48.868;9.080;2023-08-20T10:04:39;10.65;;;8.57;;
77573;SDS011;66710;48.868;9.080;2023-08-20T10:07:04;12.57;;;9.07;;
77573;SDS011;66710;48.868;9.080;2023-08-20T10:09:30;9.57;;;8.07;;
77573;SDS011;66710;48.868;9.080;2023-08-20T10:11:56;9.20;;;7.95;;
77573;SDS011;66710;48.868;9.080;2023-08-20T10:14:21;10.15;;;7.55;;
77573;SDS011;66710;48.868;9.080;2023-08-20T10:16:47;9.35;;;7.45;;
77573;SDS011;66710;48.868;9.080;2023-08-20T10:19:12;9.75;;;7.68;;
77573;SDS011;66710;48.868;9.080;2023-08-20T10:21:43;10.23;;;7.47;;
77573;SDS011;66710;48.868;9.080;2023-08-20T10:24:10;10.20;;;7.40;;
77573;SDS011;66710;48.868;9.080;2023-08-20T10:26:41;7.95;;;7.03;;
77573;SDS011;66710;48.868;9.080;2023-08-20T10:32:06;9.25;;;7.50;;
77573;SDS011;66710;48.868;9.080;2023-08-20T10:34:36;9.52;;;7.25;;
77573;SDS011;66710;48.868;9.080;2023-08-20T10:37:12;9.57;;;7.55;;
77573;SDS011;66710;48.868;9.080;2023-08-20T10:39:38;9.43;;;7.07;;
77573;SDS011;66710;48.868;9.080;2023-08-20T10:45:00;9.18;;;7.80;;
77573;SDS011;66710;48.868;9.080;2023-08-20T10:50:01;8.90;;;8.00;;
77573;SDS011;66710;48.868;9.080;2023-08-20T10:52:27;9.80;;;7.82;;
77573;SDS011;66710;48.868;9.080;2023-08-20T10:54:53;9.48;;;8.13;;
77573;SDS011;66710;48.868;9.080;2023-08-20T10:57:21;9.73;;;7.85;;
77573;SDS011;66710;48.868;9.080;2023-08-20T10:59:56;9.77;;;8.13;;
77573;SDS011;66710;48.868;9.080;2023-08-20T11:02:25;9.32;;;8.07;;
77573;SDS011;66710;48.868;9.080;2023-08-20T11:04:51;9.27;;;7.80;;
77573;SDS011;66710;48.868;9.080;2023-08-20T11:07:18;12.10;;;8.20;;
77573;SDS011;66710;48.868;9.080;2023-08-20T11:09:44;10.85;;;7.53;;
77573;SDS011;66710;48.868;9.080;2023-08-20T11:12:11;9.93;;;7.63;;
77573;SDS011;66710;48.868;9.080;2023-08-20T11:14:39;9.02;;;7.63;;
77573;SDS011;66710;48.868;9.080;2023-08-20T11:17:04;9.23;;;8.10;;
77573;SDS011;66710;48.868;9.080;2023-08-20T11:19:29;11.35;;;7.88;;
77573;SDS011;66710;48.868;9.080;2023-08-20T11:21:55;8.27;;;6.88;;
77573;SDS011;66710;48.868;9.080;2023-08-20T11:24:20;9.48;;;7.32;;
77573;SDS011;66710;48.868;9.080;2023-08-20T11:26:46;11.00;;;8.05;;
77573;SDS011;66710;48.868;9.080;2023-08-20T11:29:12;8.88;;;7.75;;
77573;SDS011;66710;48.868;9.080;2023-08-20T11:31:39;8.13;;;7.22;;
77573;SDS011;66710;48.868;9.080;2023-08-20T11:34:05;8.98;;;6.97;;
77573;SDS011;66710;48.868;9.080;2023-08-20T11:36:31;8.73;;;6.63;;
77573;SDS011;66710;48.868;9.080;2023-08-20T11:38:56;9.48;;;6.88;;
77573;SDS011;66710;48.868;9.080;2023-08-20T11:41:22;11.77;;;7.00;;
77573;SDS011;66710;48.868;9.080;2023-08-20T11:43:49;10.80;;;8.90;;
77573;SDS011;66710;48.868;9.080;2023-08-20T11:46:15;8.32;;;7.25;;
77573;SDS011;66710;48.868;9.080;2023-08-20T11:49:02;9.63;;;7.45;;
77573;SDS011;66710;48.868;9.080;2023-08-20T11:51:29;9.45;;;7.75;;
77573;SDS011;66710;48.868;9.080;2023-08-20T11:53:58;9.70;;;7.55;;
77573;SDS011;66710;48.868;9.080;2023-08-20T11:56:23;11.40;;;7.88;;
77573;SDS011;66710;48.868;9.080;2023-08-20T11:58:51;8.10;;;7.30;;
77573;SDS011;66710;48.868;9.080;2023-08-20T12:01:19;9.50;;;7.55;;
77573;SDS011;66710;48.868;9.080;2023-08-20T12:03:45;7.85;;;7.05;;
77573;SDS011;66710;48.868;9.080;2023-08-20T12:06:17;7.75;;;6.95;;
77573;SDS011;66710;48.868;9.080;2023-08-20T12:08:43;9.98;;;7.47;;
77573;SDS011;66710;48.868;9.080;2023-08-20T12:11:08;8.43;;;7.13;;
77573;SDS011;66710;48.868;9.080;2023-08-20T12:13:35;9.27;;;7.35;;
77573;SDS011;66710;48.868;9.080;2023-08-20T12:16:00;8.57;;;7.65;;
77573;SDS011;66710;48.868;9.080;2023-08-20T12:18:25;9.27;;;7.30;;
77573;SDS011;66710;48.868;9.080;2023-08-20T12:20:50;8.85;;;7.10;;
77573;SDS011;66710;48.868;9.080;2023-08-20T12:23:16;9.98;;;7.22;;
77573;SDS011;66710;48.868;9.080;2023-08-20T12:25:41;7.97;;;7.18;;
77573;SDS011;66710;48.868;9.080;2023-08-20T12:28:07;7.45;;;6.68;;
77573;SDS011;66710;48.868;9.080;2023-08-20T12:30:33;7.30;;;6.50;;
77573;SDS011;66710;48.868;9.080;2023-08-20T12:33:01;8.57;;;6.28;;
77573;SDS011;66710;48.868;9.080;2023-08-20T12:35:28;7.53;;;6.53;;
77573;SDS011;66710;48.868;9.080;2023-08-20T12:37:53;8.65;;;6.80;;
77573;SDS011;66710;48.868;9.080;2023-08-20T12:40:19;7.75;;;6.70;;
77573;SDS011;66710;48.868;9.080;2023-08-20T12:42:44;8.63;;;6.50;;
77573;SDS011;66710;48.868;9.080;2023-08-20T12:45:09;7.65;;;6.35;;
77573;SDS011;66710;48.868;9.080;2023-08-20T12:47:35;7.32;;;6.57;;
77573;SDS011;66710;48.868;9.080;2023-08-20T12:50:01;7.93;;;6.75;;
77573;SDS011;66710;48.868;9.080;2023-08-20T12:52:26;7.95;;;6.43;;
77573;SDS011;66710;48.868;9.080;2023-08-20T12:54:51;8.43;;;6.05;;
77573;SDS011;66710;48.868;9.080;2023-08-20T12:57:17;7.00;;;6.30;;
77573;SDS011;66710;48.868;9.080;2023-08-20T12:59:42;8.25;;;6.63;;
77573;SDS011;66710;48.868;9.080;2023-08-20T13:02:07;10.90;;;6.75;;
77573;SDS011;66710;48.868;9.080;2023-08-20T13:04:33;8.90;;;6.40;;
77573;SDS011;66710;48.868;9.080;2023-08-20T13:06:59;7.28;;;6.45;;
77573;SDS011;66710;48.868;9.080;2023-08-20T13:09:25;10.85;;;6.53;;
77573;SDS011;66710;48.868;9.080;2023-08-20T13:11:51;6.72;;;5.97;;
77573;SDS011;66710;48.868;9.080;2023-08-20T13:14:19;7.28;;;6.47;;
77573;SDS011;66710;48.868;9.080;2023-08-20T13:16:44;7.90;;;6.43;;
77573;SDS011;66710;48.868;9.080;2023-08-20T13:19:10;8.23;;;6.35;;
77573;SDS011;66710;48.868;9.080;2023-08-20T13:21:35;7.03;;;6.32;;
77573;SDS011;66710;48.868;9.080;2023-08-20T13:24:01;8.52;;;6.38;;
77573;SDS011;66710;48.868;9.080;2023-08-20T13:26:26;9.40;;;6.30;;
77573;SDS011;66710;48.868;9.080;2023-08-20T13:28:51;7.72;;;5.82;;
77573;SDS011;66710;48.868;9.080;2023-08-20T13:31:16;7.50;;;6.20;;
77573;SDS011;66710;48.868;9.080;2023-08-20T13:33:42;7.53;;;5.97;;
77573;SDS011;66710;48.868;9.080;2023-08-20T13:36:07;10.55;;;5.93;;
77573;SDS011;66710;48.868;9.080;2023-08-20T13:38:32;7.15;;;6.05;;
77573;SDS011;66710;48.868;9.080;2023-08-20T13:40:58;7.15;;;5.75;;
77573;SDS011;66710;48.868;9.080;2023-08-20T13:43:23;6.80;;;5.60;;
77573;SDS011;66710;48.868;9.080;2023-08-20T13:45:48;9.38;;;6.28;;
77573;SDS011;66710;48.868;9.080;2023-08-20T13:48:14;7.82;;;5.93;;
77573;SDS011;66710;48.868;9.080;2023-08-20T13:50:39;9.55;;;6.07;;
77573;SDS011;66710;48.868;9.080;2023-08-20T13:53:04;6.97;;;5.85;;
77573;SDS011;66710;48.868;9.080;2023-08-20T13:55:30;7.28;;;5.82;;
77573;SDS011;66710;48.868;9.080;2023-08-20T13:57:56;8.15;;;5.45;;
77573;SDS011;66710;48.868;9.080;2023-08-20T14:00:21;8.27;;;5.72;;
77573;SDS011;66710;48.868;9.080;2023-08-20T14:02:47;10.15;;;5.90;;
77573;SDS011;66710;48.868;9.080;2023-08-20T14:05:15;8.93;;;5.80;;
77573;SDS011;66710;48.868;9.080;2023-08-20T14:07:40;8.18;;;5.88;;
77573;SDS011;66710;48.868;9.080;2023-08-20T14:10:06;7.60;;;6.00;;
77573;SDS011;66710;48.868;9.080;2023-08-20T14:12:33;7.00;;;5.47;;
77573;SDS011;66710;48.868;9.080;2023-08-20T14:14:58;8.88;;;6.20;;
77573;SDS011;66710;48.868;9.080;2023-08-20T14:17:24;7.80;;;5.82;;
77573;SDS011;66710;48.868;9.080;2023-08-20T14:19:49;8.68;;;6.25;;
77573;SDS011;66710;48.868;9.080;2023-08-20T14:22:14;7.18;;;6.43;;
77573;SDS011;66710;48.868;9.080;2023-08-20T14:24:39;7.82;;;5.78;;
77573;SDS011;66710;48.868;9.080;2023-08-20T14:27:05;6.65;;;5.53;;
77573;SDS011;66710;48.868;9.080;2023-08-20T14:29:32;7.53;;;5.88;;
77573;SDS011;66710;48.868;9.080;2023-08-20T14:31:57;9.35;;;5.85;;
77573;SDS011;66710;48.868;9.080;2023-08-20T14:34:23;7.32;;;6.07;;
77573;SDS011;66710;48.868;9.080;2023-08-20T14:36:48;8.25;;;5.35;;
77573;SDS011;66710;48.868;9.080;2023-08-20T14:39:13;8.40;;;5.97;;